Time,TemperatureF,DewpointF,PressureIn,WindDirection,WindDirectionDegrees,WindSpeedMPH,WindSpeedGustMPH,Humidity,HourlyPrecipIn,Conditions,Clouds,dailyrainin,SoftwareType,DateUTC
2013-06-05 00:02:00,48.0,23.0,-100.00,ENE,75,0.0,3.0,37,-99.99,,,-99.99,,2013-06-05 04:02:00,
2013-06-05 00:13:00,48.0,23.0,-100.00,North,5,1.0,1.0,37,-99.99,,,-99.99,,2013-06-05 04:13:00,
2013-06-05 00:23:00,48.0,23.0,-100.00,NE,55,2.0,2.0,37,-99.99,,,-99.99,,2013-06-05 04:23:00,
2013-06-05 00:33:00,46.0,21.0,-100.00,ENE,60,1.0,2.0,37,-99.99,,,-99.99,,2013-06-05 04:33:00,
2013-06-05 00:42:00,46.0,21.0,-100.00,ENE,60,1.0,2.0,37,-99.99,,,-99.99,,2013-06-05 04:42:00,
2013-06-05 00:53:00,46.0,21.0,-100.00,North,355,1.0,2.0,37,-99.99,,,-99.99,,2013-06-05 04:53:00,
2013-06-05 01:02:00,46.0,21.0,-100.00,North,350,0.0,2.0,37,-99.99,,,-99.99,,2013-06-05 05:02:00,
2013-06-05 01:12:00,46.0,21.0,-100.00,NNW,330,0.0,1.0,37,-99.99,,,-99.99,,2013-06-05 05:12:00,
2013-06-05 01:22:00,46.0,21.0,-100.00,NNW,330,0.0,1.0,37,-99.99,,,-99.99,,2013-06-05 05:22:00,
2013-06-05 01:32:00,45.0,20.0,-100.00,NNE,20,1.0,1.0,37,-99.99,,,-99.99,,2013-06-05 05:32:00,
2013-06-05 01:42:00,45.0,20.0,-100.00,NNE,20,1.0,1.0,37,-99.99,,,-99.99,,2013-06-05 05:42:00,
2013-06-05 01:52:00,45.0,20.0,-100.00,North,0,1.0,1.0,37,-99.99,,,-99.99,,2013-06-05 05:52:00,
2013-06-05 02:02:00,45.0,20.0,-100.00,North,0,1.0,1.0,37,-99.99,,,-99.99,,2013-06-05 06:02:00,
2013-06-05 02:12:00,45.0,20.0,-100.00,North,10,1.0,2.0,37,-99.99,,,-99.99,,2013-06-05 06:12:00,
2013-06-05 02:22:00,45.0,20.0,-100.00,North,0,2.0,2.0,37,-99.99,,,-99.99,,2013-06-05 06:22:00,
2013-06-05 02:32:00,45.0,34.0,-100.00,North,5,1.0,-999.0,65,-99.99,,,-99.99,,2013-06-05 06:32:00,
2013-06-05 02:42:00,45.0,34.0,-100.00,North,5,1.0,-999.0,65,-99.99,,,-99.99,,2013-06-05 06:42:00,
2013-06-05 02:52:00,45.0,34.0,-100.00,North,350,0.0,-999.0,65,-99.99,,,-99.99,,2013-06-05 06:52:00,
2013-06-05 03:02:00,45.0,34.0,-100.00,North,350,0.0,-999.0,65,-99.99,,,-99.99,,2013-06-05 07:02:00,
2013-06-05 03:12:00,45.0,34.0,-100.00,NNE,20,1.0,-999.0,65,-99.99,,,-99.99,,2013-06-05 07:12:00,
2013-06-05 03:22:00,45.0,34.0,-100.00,WNW,300,1.0,-999.0,65,-99.99,,,-99.99,,2013-06-05 07:22:00,
2013-06-05 03:32:00,44.0,39.0,-100.00,NE,40,3.0,-999.0,83,-99.99,,,-99.99,,2013-06-05 07:32:00,
2013-06-05 03:42:00,44.0,39.0,-100.00,NE,40,3.0,-999.0,83,-99.99,,,-99.99,,2013-06-05 07:42:00,
2013-06-05 03:52:00,44.0,39.0,-100.00,West,265,0.0,-999.0,83,-99.99,,,-99.99,,2013-06-05 07:52:00,
2013-06-05 04:02:00,44.0,39.0,-100.00,SW,215,2.0,-999.0,83,-99.99,,,-99.99,,2013-06-05 08:02:00,
2013-06-05 04:12:00,44.0,39.0,-100.00,West,260,1.0,-999.0,83,-99.99,,,-99.99,,2013-06-05 08:12:00,
2013-06-05 04:22:00,44.0,36.0,-100.00,ENE,70,6.0,-999.0,74,-99.99,,,-99.99,,2013-06-05 08:22:00,
2013-06-05 04:32:00,45.0,36.0,-100.00,NE,55,1.0,-999.0,71,-99.99,,,-99.99,,2013-06-05 08:32:00,
2013-06-05 04:42:00,45.0,36.0,-100.00,NNE,25,2.0,-999.0,71,-99.99,,,-99.99,,2013-06-05 08:42:00,
2013-06-05 04:52:00,45.0,36.0,-100.00,NNW,335,1.0,-999.0,71,-99.99,,,-99.99,,2013-06-05 08:52:00,
2013-06-05 05:02:00,45.0,36.0,-100.00,NNW,335,1.0,-999.0,71,-99.99,,,-99.99,,2013-06-05 09:02:00,
2013-06-05 05:12:00,45.0,39.0,-100.00,NNW,330,1.0,-999.0,80,-99.99,,,-99.99,,2013-06-05 09:12:00,
2013-06-05 05:22:00,45.0,39.0,-100.00,NNE,20,1.0,-999.0,80,-99.99,,,-99.99,,2013-06-05 09:22:00,
2013-06-05 05:33:00,45.0,39.0,-100.00,NNE,25,1.0,3.0,80,-99.99,,,-99.99,,2013-06-05 09:33:00,
2013-06-05 05:43:00,45.0,39.0,-100.00,NE,35,2.0,2.0,80,-99.99,,,-99.99,,2013-06-05 09:43:00,
2013-06-05 05:53:00,45.0,39.0,-100.00,East,90,1.0,2.0,80,-99.99,,,-99.99,,2013-06-05 09:53:00,
2013-06-05 06:03:00,45.0,39.0,-100.00,East,90,1.0,2.0,80,-99.99,,,-99.99,,2013-06-05 10:03:00,
2013-06-05 06:12:00,45.0,39.0,-100.00,North,0,3.0,3.0,80,-99.99,,,-99.99,,2013-06-05 10:12:00,
2013-06-05 06:22:00,45.0,40.0,-100.00,North,5,2.0,5.0,83,-99.99,,,-99.99,,2013-06-05 10:22:00,
2013-06-05 06:33:00,45.0,40.0,-100.00,NW,305,3.0,3.0,83,-99.99,,,-99.99,,2013-06-05 10:33:00,
2013-06-05 06:42:00,45.0,40.0,-100.00,NW,305,3.0,3.0,83,-99.99,,,-99.99,,2013-06-05 10:42:00,
2013-06-05 06:52:00,45.0,40.0,-100.00,NW,305,3.0,3.0,83,-99.99,,,-99.99,,2013-06-05 10:52:00,
2013-06-05 07:02:00,45.0,40.0,-100.00,NNE,20,1.0,5.0,83,-99.99,,,-99.99,,2013-06-05 11:02:00,
2013-06-05 07:12:00,45.0,40.0,-100.00,NNW,345,1.0,3.0,83,-99.99,,,-99.99,,2013-06-05 11:12:00,
2013-06-05 07:22:00,45.0,40.0,-100.00,NW,310,1.0,2.0,83,-99.99,,,-99.99,,2013-06-05 11:22:00,
2013-06-05 07:32:00,44.0,40.0,-100.00,NNE,20,3.0,5.0,86,-99.99,,,-99.99,,2013-06-05 11:32:00,
2013-06-05 07:42:00,49.0,40.0,-100.00,East,80,2.0,3.0,71,-99.99,,,-99.99,,2013-06-05 11:42:00,
2013-06-05 07:52:00,49.0,40.0,-100.00,East,80,2.0,5.0,71,-99.99,,,-99.99,,2013-06-05 11:52:00,
2013-06-05 08:02:00,49.0,40.0,-100.00,ENE,65,2.0,5.0,71,-99.99,,,-99.99,,2013-06-05 12:02:00,
2013-06-05 08:12:00,49.0,40.0,-100.00,ENE,65,2.0,5.0,71,-99.99,,,-99.99,,2013-06-05 12:12:00,
2013-06-05 08:22:00,49.0,39.0,-100.00,NE,35,3.0,-999.0,69,-99.99,,,-99.99,,2013-06-05 12:22:00,
2013-06-05 08:32:00,52.0,42.0,-100.00,South,190,5.0,10.0,69,-99.99,,,-99.99,,2013-06-05 12:32:00,
2013-06-05 08:44:00,52.0,42.0,-100.00,South,190,5.0,10.0,69,-99.99,,,-99.99,,2013-06-05 12:44:00,
2013-06-05 08:52:00,52.0,42.0,-100.00,ENE,65,2.0,8.0,69,-99.99,,,-99.99,,2013-06-05 12:52:00,
2013-06-05 09:02:00,52.0,42.0,-100.00,ENE,65,2.0,8.0,69,-99.99,,,-99.99,,2013-06-05 13:02:00,
2013-06-05 09:12:00,52.0,42.0,-100.00,East,85,2.0,7.0,69,-99.99,,,-99.99,,2013-06-05 13:12:00,
2013-06-05 09:22:00,52.0,40.0,-100.00,WSW,245,2.0,5.0,64,-99.99,,,-99.99,,2013-06-05 13:22:00,
2013-06-05 09:32:00,52.0,40.0,-100.00,WSW,255,2.0,2.0,64,-99.99,,,-99.99,,2013-06-05 13:32:00,
2013-06-05 09:42:00,52.0,40.0,-100.00,North,350,2.0,3.0,64,-99.99,,,-99.99,,2013-06-05 13:42:00,
2013-06-05 09:52:00,52.0,40.0,-100.00,WNW,295,1.0,2.0,64,-99.99,,,-99.99,,2013-06-05 13:52:00,
2013-06-05 10:02:00,52.0,40.0,-100.00,WSW,245,3.0,5.0,64,-99.99,,,-99.99,,2013-06-05 14:02:00,
2013-06-05 10:12:00,52.0,40.0,-100.00,West,275,1.0,5.0,64,-99.99,,,-99.99,,2013-06-05 14:12:00,
2013-06-05 10:22:00,52.0,43.0,-100.00,East,90,0.0,3.0,72,-99.99,,,-99.99,,2013-06-05 14:22:00,
2013-06-05 10:32:00,53.0,42.0,-100.00,South,190,1.0,3.0,66,-99.99,,,-99.99,,2013-06-05 14:32:00,
2013-06-05 10:42:00,53.0,42.0,-100.00,ENE,65,1.0,2.0,66,-99.99,,,-99.99,,2013-06-05 14:42:00,
2013-06-05 10:52:00,53.0,42.0,-100.00,ESE,120,2.0,5.0,66,-99.99,,,-99.99,,2013-06-05 14:52:00,
2013-06-05 11:02:00,53.0,42.0,-100.00,ESE,120,2.0,5.0,66,-99.99,,,-99.99,,2013-06-05 15:02:00,
2013-06-05 11:12:00,53.0,43.0,-100.00,SE,130,2.0,5.0,69,-99.99,,,-99.99,,2013-06-05 15:12:00,
2013-06-05 11:22:00,53.0,43.0,-100.00,SE,135,3.0,5.0,69,-99.99,,,-99.99,,2013-06-05 15:22:00,
2013-06-05 11:33:00,53.0,43.0,-100.00,South,176,2.0,5.0,68,-99.99,,,-99.99,,2013-06-05 15:33:00,
2013-06-05 11:42:00,53.0,43.0,-100.00,South,180,2.0,5.0,69,-99.99,,,-99.99,,2013-06-05 15:42:00,
2013-06-05 11:53:00,53.0,43.0,-100.00,South,175,2.0,6.0,69,-99.99,,,-99.99,,2013-06-05 15:53:00,
2013-06-05 12:03:00,53.0,43.0,-100.00,South,175,2.0,6.0,69,-99.99,,,-99.99,,2013-06-05 16:03:00,
2013-06-05 12:12:00,53.0,43.0,-100.00,South,170,3.0,5.0,69,-99.99,,,-99.99,,2013-06-05 16:12:00,
2013-06-05 12:23:00,53.0,43.0,-100.00,South,185,2.0,8.0,69,-99.99,,,-99.99,,2013-06-05 16:23:00,
2013-06-05 12:32:00,55.0,45.0,-100.00,South,180,3.0,7.0,69,-99.99,,,-99.99,,2013-06-05 16:32:00,
2013-06-05 12:42:00,55.0,45.0,-100.00,South,180,3.0,7.0,69,-99.99,,,-99.99,,2013-06-05 16:42:00,
2013-06-05 12:54:00,55.0,45.0,-100.00,South,180,6.0,8.0,69,-99.99,,,-99.99,,2013-06-05 16:54:00,
2013-06-05 13:02:00,55.0,45.0,-100.00,South,180,6.0,8.0,69,-99.99,,,-99.99,,2013-06-05 17:02:00,
2013-06-05 13:12:00,55.0,45.0,-100.00,SE,140,5.0,8.0,69,-99.99,,,-99.99,,2013-06-05 17:12:00,
2013-06-05 13:22:00,55.0,45.0,-100.00,SSE,155,6.0,10.0,69,-99.99,,,-99.99,,2013-06-05 17:22:00,
2013-06-05 13:33:00,55.0,45.0,-100.00,SSE,160,3.0,7.0,69,-99.99,,,-99.99,,2013-06-05 17:33:00,
2013-06-05 13:43:00,55.0,45.0,-100.00,SSE,165,3.0,6.0,69,-99.99,,,-99.99,,2013-06-05 17:43:00,
2013-06-05 13:52:00,55.0,45.0,-100.00,SSE,150,5.0,6.0,69,-99.99,,,-99.99,,2013-06-05 17:52:00,
2013-06-05 14:02:00,55.0,47.0,-100.00,SSE,155,1.0,5.0,75,-99.99,,,-99.99,,2013-06-05 18:02:00,
2013-06-05 14:12:00,55.0,47.0,-100.00,ENE,65,3.0,5.0,75,-99.99,,,-99.99,,2013-06-05 18:12:00,
2013-06-05 14:22:00,55.0,47.0,-100.00,ENE,65,6.0,10.0,75,-99.99,,,-99.99,,2013-06-05 18:22:00,
2013-06-05 14:32:00,56.0,48.0,-100.00,SE,140,3.0,6.0,75,-99.99,,,-99.99,,2013-06-05 18:32:00,
2013-06-05 14:42:00,56.0,48.0,-100.00,ESE,120,5.0,7.0,75,-99.99,,,-99.99,,2013-06-05 18:42:00,
2013-06-05 14:52:00,56.0,48.0,-100.00,SE,130,6.0,9.0,75,-99.99,,,-99.99,,2013-06-05 18:52:00,
2013-06-05 15:02:00,56.0,48.0,-100.00,SE,130,6.0,9.0,75,-99.99,,,-99.99,,2013-06-05 19:02:00,
2013-06-05 15:12:00,56.0,48.0,-100.00,SE,145,5.0,13.0,75,-99.99,,,-99.99,,2013-06-05 19:12:00,
2013-06-05 15:23:00,56.0,48.0,-100.00,SSE,150,3.0,9.0,75,-99.99,,,-99.99,,2013-06-05 19:23:00,
2013-06-05 15:32:00,55.0,47.0,-100.00,ESE,115,8.0,8.0,75,-99.99,,,-99.99,,2013-06-05 19:32:00,
2013-06-05 15:42:00,55.0,47.0,-100.00,SE,130,6.0,10.0,75,-99.99,,,-99.99,,2013-06-05 19:42:00,
2013-06-05 15:52:00,55.0,47.0,-100.00,SSE,165,5.0,9.0,75,-99.99,,,-99.99,,2013-06-05 19:52:00,
2013-06-05 16:02:00,55.0,47.0,-100.00,SSE,165,5.0,9.0,75,-99.99,,,-99.99,,2013-06-05 20:02:00,
2013-06-05 16:12:00,55.0,47.0,-100.00,SE,130,5.0,7.0,75,-99.99,,,-99.99,,2013-06-05 20:12:00,
2013-06-05 16:22:00,55.0,47.0,-100.00,SE,125,6.0,12.0,75,-99.99,,,-99.99,,2013-06-05 20:22:00,
2013-06-05 16:32:00,56.0,48.0,-100.00,ESE,120,6.0,8.0,75,-99.99,,,-99.99,,2013-06-05 20:32:00,
2013-06-05 16:42:00,56.0,48.0,-100.00,ESE,120,6.0,8.0,75,-99.99,,,-99.99,,2013-06-05 20:42:00,
2013-06-05 16:52:00,56.0,48.0,-100.00,ESE,110,7.0,9.0,75,-99.99,,,-99.99,,2013-06-05 20:52:00,
2013-06-05 17:02:00,56.0,48.0,-100.00,ESE,110,7.0,9.0,75,-99.99,,,-99.99,,2013-06-05 21:02:00,
2013-06-05 17:12:00,56.0,48.0,-100.00,East,100,2.0,8.0,75,-99.99,,,-99.99,,2013-06-05 21:12:00,
2013-06-05 17:22:00,56.0,48.0,-100.00,ESE,110,5.0,7.0,75,-99.99,,,-99.99,,2013-06-05 21:22:00,
2013-06-05 17:33:00,57.0,49.0,-100.00,SE,145,5.0,10.0,75,-99.99,,,-99.99,,2013-06-05 21:33:00,
2013-06-05 17:43:00,57.0,49.0,-100.00,SE,145,5.0,10.0,75,-99.99,,,-99.99,,2013-06-05 21:43:00,
2013-06-05 17:53:00,57.0,49.0,-100.00,SSE,150,6.0,12.0,75,-99.99,,,-99.99,,2013-06-05 21:53:00,
2013-06-05 18:02:00,57.0,49.0,-100.00,SSE,150,6.0,12.0,75,-99.99,,,-99.99,,2013-06-05 22:02:00,
2013-06-05 18:12:00,57.0,49.0,-100.00,SSE,150,6.0,12.0,75,-99.99,,,-99.99,,2013-06-05 22:12:00,
2013-06-05 18:22:00,57.0,49.0,-100.00,SE,125,8.0,13.0,75,-99.99,,,-99.99,,2013-06-05 22:22:00,
2013-06-05 18:32:00,57.0,49.0,-100.00,SE,130,8.0,13.0,75,-99.99,,,-99.99,,2013-06-05 22:32:00,
2013-06-05 18:42:00,57.0,49.0,-100.00,SE,130,8.0,13.0,75,-99.99,,,-99.99,,2013-06-05 22:42:00,
2013-06-05 18:52:00,57.0,49.0,-100.00,ESE,120,7.0,12.0,75,-99.99,,,-99.99,,2013-06-05 22:52:00,
2013-06-05 19:02:00,57.0,49.0,-100.00,ESE,120,7.0,12.0,75,-99.99,,,-99.99,,2013-06-05 23:02:00,
2013-06-05 19:12:00,57.0,49.0,-100.00,SE,125,5.0,12.0,75,-99.99,,,-99.99,,2013-06-05 23:12:00,
2013-06-05 19:22:00,57.0,49.0,-100.00,ESE,120,3.0,10.0,75,-99.99,,,-99.99,,2013-06-05 23:22:00,
2013-06-05 19:32:00,56.0,48.0,-100.00,SE,125,5.0,9.0,75,-99.99,,,-99.99,,2013-06-05 23:32:00,
2013-06-05 19:42:00,56.0,48.0,-100.00,SE,125,5.0,9.0,75,-99.99,,,-99.99,,2013-06-05 23:42:00,
2013-06-05 19:53:00,56.0,48.0,-100.00,ESE,105,7.0,10.0,75,-99.99,,,-99.99,,2013-06-05 23:53:00,
2013-06-05 20:02:00,56.0,48.0,-100.00,ESE,105,7.0,10.0,75,-99.99,,,-99.99,,2013-06-06 00:02:00,
2013-06-05 20:12:00,56.0,48.0,-100.00,ESE,115,5.0,8.0,75,-99.99,,,-99.99,,2013-06-06 00:12:00,
2013-06-05 20:22:00,56.0,48.0,-100.00,East,80,7.0,10.0,75,-99.99,,,-99.99,,2013-06-06 00:22:00,
2013-06-05 20:42:00,55.0,50.0,-100.00,East,90,6.0,10.0,84,-99.99,,,-99.99,,2013-06-06 00:42:00,
2013-06-05 20:52:00,55.0,50.0,-100.00,East,100,7.0,13.0,84,-99.99,,,-99.99,,2013-06-06 00:52:00,
2013-06-05 21:02:00,55.0,50.0,-100.00,East,100,7.0,13.0,84,-99.99,,,-99.99,,2013-06-06 01:02:00,
2013-06-05 21:12:00,55.0,50.0,-100.00,East,100,6.0,12.0,84,-99.99,,,-99.99,,2013-06-06 01:12:00,
2013-06-05 21:22:00,55.0,50.0,-100.00,East,90,7.0,10.0,84,-99.99,,,-99.99,,2013-06-06 01:22:00,
2013-06-05 21:32:00,52.0,47.0,-100.00,ENE,75,5.0,8.0,84,-99.99,,,-99.99,,2013-06-06 01:32:00,
2013-06-05 21:42:00,52.0,47.0,-100.00,ENE,75,5.0,8.0,84,-99.99,,,-99.99,,2013-06-06 01:42:00,
2013-06-05 21:50:00,49.0,44.0,-100.00,ESE,115,3.0,7.0,84,-99.99,,,-99.99,,2013-06-06 01:50:00,
2013-06-05 21:52:00,52.0,47.0,-100.00,ENE,75,3.0,6.0,84,-99.99,,,-99.99,,2013-06-06 01:52:00,
2013-06-05 22:02:00,52.0,47.0,-100.00,ENE,75,3.0,6.0,84,-99.99,,,-99.99,,2013-06-06 02:02:00,
2013-06-05 22:12:00,52.0,47.0,-100.00,East,80,3.0,5.0,84,-99.99,,,-99.99,,2013-06-06 02:12:00,
2013-06-05 22:22:00,52.0,47.0,-100.00,East,90,5.0,12.0,84,-99.99,,,-99.99,,2013-06-06 02:22:00,
2013-06-05 22:32:00,49.0,44.0,-100.00,ESE,115,3.0,7.0,84,-99.99,,,-99.99,,2013-06-06 02:32:00,
2013-06-05 22:42:00,49.0,44.0,-100.00,ESE,115,3.0,7.0,84,-99.99,,,-99.99,,2013-06-06 02:42:00,
2013-06-05 23:02:00,49.0,44.0,-100.00,ESE,115,5.0,9.0,84,-99.99,,,-99.99,,2013-06-06 03:02:00,
2013-06-05 23:12:00,49.0,44.0,-100.00,East,95,5.0,10.0,84,-99.99,,,-99.99,,2013-06-06 03:12:00,
2013-06-05 23:22:00,49.0,44.0,-100.00,East,80,6.0,9.0,84,-99.99,,,-99.99,,2013-06-06 03:22:00,
2013-06-05 23:33:00,49.0,44.0,-100.00,East,90,6.0,9.0,84,-99.99,,,-99.99,,2013-06-06 03:33:00,
2013-06-05 23:43:00,49.0,44.0,-100.00,East,90,6.0,9.0,84,-99.99,,,-99.99,,2013-06-06 03:43:00,
2013-06-05 23:52:00,49.0,44.0,-100.00,East,100,6.0,10.0,84,-99.99,,,-99.99,,2013-06-06 03:52:00,